createdAt,value
2023-03-28T00:01:36.924Z,20.50
2023-03-28T00:04:24.081Z,25.13
2023-03-28T00:07:12.001Z,22.80
2023-03-28T00:10:00.206Z,31.45
2023-03-28T00:12:47.405Z,20.20
2023-03-28T00:15:40.419Z,22.23
2023-03-28T00:18:28.263Z,23.80
2023-03-28T00:21:29.430Z,24.65
2023-03-28T00:24:19.011Z,21.85
2023-03-28T00:27:09.721Z,21.65
2023-03-28T00:29:56.881Z,17.60
2023-03-28T00:32:50.556Z,17.10
2023-03-28T00:35:37.817Z,21.52
2023-03-28T00:38:25.013Z,16.60
2023-03-28T00:41:14.369Z,16.52
2023-03-28T00:44:02.894Z,21.25
2023-03-28T00:46:51.783Z,20.58
2023-03-28T00:49:38.966Z,16.50
2023-03-28T00:52:29.910Z,20.60
2023-03-28T00:55:26.654Z,22.30
2023-03-28T00:58:23.216Z,18.30
2023-03-28T01:01:15.752Z,19.85
2023-03-28T01:04:03.322Z,23.38
2023-03-28T01:06:54.879Z,19.45
2023-03-28T01:09:43.480Z,18.98
2023-03-28T01:12:35.394Z,23.73
2023-03-28T01:15:23.662Z,17.55
2023-03-28T01:18:16.280Z,19.85
2023-03-28T01:21:07.747Z,23.85
2023-03-28T01:24:16.466Z,21.33
2023-03-28T01:27:15.546Z,21.13
2023-03-28T01:30:34.146Z,20.65
2023-03-28T01:33:50.773Z,17.23
2023-03-28T01:37:05.787Z,22.10
2023-03-28T01:40:07.944Z,22.77
2023-03-28T01:43:02.994Z,22.92
2023-03-28T01:46:12.622Z,22.08
2023-03-28T01:49:26.708Z,18.33
2023-03-28T01:52:28.132Z,21.02
2023-03-28T01:55:24.046Z,19.63
2023-03-28T01:58:39.174Z,19.05
2023-03-28T02:01:40.543Z,19.50
2023-03-28T02:04:29.689Z,17.50
2023-03-28T02:07:22.151Z,15.07
2023-03-28T02:10:11.826Z,18.15
2023-03-28T02:13:17.410Z,22.60
2023-03-28T02:16:06.632Z,20.50
2023-03-28T02:18:56.965Z,18.40
2023-03-28T02:22:13.370Z,14.65
2023-03-28T02:25:00.700Z,16.08
2023-03-28T02:27:53.110Z,15.07
2023-03-28T02:30:40.670Z,18.05
2023-03-28T02:33:43.481Z,17.98
2023-03-28T02:39:40.099Z,18.73
2023-03-28T02:42:48.379Z,22.20
2023-03-28T02:45:58.868Z,20.95
2023-03-28T02:48:48.271Z,17.30
2023-03-28T02:51:40.612Z,23.83
2023-03-28T02:54:35.924Z,16.70
2023-03-28T02:57:37.618Z,24.58
2023-03-28T03:00:25.380Z,25.70
2023-03-28T03:03:17.479Z,18.20
2023-03-28T03:06:05.399Z,16.90
2023-03-28T03:08:52.703Z,19.77
2023-03-28T03:11:39.980Z,23.58
2023-03-28T03:14:27.290Z,17.10
2023-03-28T03:17:17.098Z,24.55
2023-03-28T03:20:07.646Z,23.00
2023-03-28T03:22:55.542Z,19.13
2023-03-28T03:25:45.534Z,16.30
2023-03-28T03:28:33.959Z,17.90
2023-03-28T03:31:21.511Z,24.27
2023-03-28T03:34:08.944Z,21.98
2023-03-28T03:36:57.143Z,17.48
2023-03-28T03:39:45.340Z,17.05
2023-03-28T03:42:35.004Z,20.67
2023-03-28T03:45:22.726Z,19.55
2023-03-28T03:48:12.809Z,17.55
2023-03-28T03:51:00.005Z,19.58
2023-03-28T03:53:50.656Z,18.48
2023-03-28T03:56:41.669Z,16.77
2023-03-28T03:59:29.141Z,20.05
2023-03-28T04:02:18.791Z,26.42
2023-03-28T04:05:08.687Z,24.63
2023-03-28T04:08:00.428Z,24.52
2023-03-28T04:10:50.049Z,17.52
2023-03-28T04:13:37.578Z,21.02
2023-03-28T04:16:24.953Z,23.52
2023-03-28T04:19:13.879Z,30.55
2023-03-28T04:22:04.320Z,25.80
2023-03-28T04:24:53.559Z,28.88
2023-03-28T04:27:42.023Z,20.65
2023-03-28T04:30:30.514Z,30.70
2023-03-28T04:33:17.922Z,26.95
2023-03-28T04:36:08.264Z,25.83
2023-03-28T04:38:58.451Z,22.95
2023-03-28T04:41:46.283Z,25.27
2023-03-28T04:44:33.577Z,23.98
2023-03-28T04:47:21.242Z,21.23
2023-03-28T04:50:10.194Z,22.10
2023-03-28T04:52:57.410Z,26.33
2023-03-28T04:55:50.654Z,28.00
2023-03-28T04:58:38.478Z,26.40
2023-03-28T05:01:27.476Z,23.98
2023-03-28T05:04:18.668Z,24.02
2023-03-28T05:07:06.433Z,26.58
2023-03-28T05:10:05.095Z,27.33
2023-03-28T05:12:52.556Z,28.05
2023-03-28T05:19:40.512Z,25.17
2023-03-28T05:22:28.044Z,30.45
2023-03-28T05:25:41.089Z,24.27
2023-03-28T05:32:28.345Z,25.23
2023-03-28T05:35:16.863Z,24.65
2023-03-28T05:38:05.317Z,29.83
2023-03-28T05:40:58.135Z,25.42
2023-03-28T07:21:42.673Z,19.35
2023-03-28T07:24:04.062Z,15.38
2023-03-28T07:27:14.927Z,16.98
2023-03-28T07:32:05.313Z,17.23
2023-03-28T07:34:51.487Z,17.65
2023-03-28T07:37:40.124Z,16.05
2023-03-28T08:13:00.766Z,8.77
2023-03-28T08:19:39.373Z,16.27
2023-03-28T08:22:54.166Z,8.80
2023-03-28T08:49:57.520Z,9.50
2023-03-28T08:53:13.298Z,13.90
2023-03-28T08:56:23.483Z,6.95
2023-03-28T08:59:19.372Z,9.20
2023-03-28T09:02:36.767Z,11.20
2023-03-28T09:22:05.016Z,15.55
2023-03-28T09:25:33.009Z,10.52
2023-03-28T09:28:54.071Z,11.77
2023-03-28T09:31:46.981Z,16.65
2023-03-28T09:34:49.123Z,9.85
2023-03-28T09:37:40.920Z,8.77
2023-03-28T09:40:40.815Z,12.18
2023-03-28T09:43:42.091Z,6.65
2023-03-28T09:46:50.496Z,5.25
2023-03-28T09:49:40.694Z,8.40
2023-03-28T09:53:56.808Z,6.13
2023-03-28T09:56:54.882Z,6.50
2023-03-28T10:00:54.926Z,8.70
2023-03-28T10:03:54.482Z,8.63
2023-03-28T10:07:18.239Z,13.10
2023-03-28T10:11:00.860Z,5.30
2023-03-28T10:18:24.102Z,7.07
2023-03-28T10:21:21.709Z,13.25
2023-03-28T10:39:53.513Z,8.45
2023-03-28T10:42:54.961Z,6.88
2023-03-28T10:46:09.239Z,7.55
2023-03-28T10:49:35.497Z,5.43
2023-03-28T10:57:04.454Z,8.73
2023-03-28T11:04:19.075Z,4.07
2023-03-28T11:07:23.132Z,7.45
2023-03-28T11:10:16.707Z,5.60
2023-03-28T11:13:28.067Z,5.47
2023-03-28T11:16:49.948Z,9.85
2023-03-28T11:20:02.344Z,4.68
2023-03-28T11:23:24.845Z,5.03
2023-03-28T11:26:26.647Z,4.78
2023-03-28T11:29:33.359Z,6.57
2023-03-28T11:32:40.821Z,4.75
2023-03-28T11:35:51.397Z,3.47
2023-03-28T11:39:06.469Z,4.88
2023-03-28T11:42:03.110Z,5.38
2023-03-28T11:44:59.224Z,7.20
2023-03-28T11:48:05.813Z,7.18
2023-03-28T11:51:27.739Z,6.43
2023-03-28T11:54:25.902Z,7.47
2023-03-28T11:57:19.496Z,5.05
2023-03-28T12:03:48.423Z,5.90
2023-03-28T12:07:03.454Z,6.68
2023-03-28T12:10:16.175Z,4.15
2023-03-28T12:13:30.650Z,3.10
2023-03-28T12:16:24.280Z,4.18
2023-03-28T12:19:17.442Z,6.32
2023-03-28T12:22:21.586Z,5.68
2023-03-28T12:25:38.618Z,5.60
2023-03-28T12:28:44.253Z,5.75
2023-03-28T12:31:49.937Z,5.72
2023-03-28T12:34:47.850Z,5.00
2023-03-28T12:38:06.592Z,3.90
2023-03-28T12:41:15.950Z,4.20
2023-03-28T12:44:27.278Z,5.75
2023-03-28T12:47:24.766Z,5.22
2023-03-28T12:50:32.756Z,4.20
2023-03-28T12:53:27.861Z,5.95
2023-03-28T12:56:16.703Z,3.67
2023-03-28T12:59:37.065Z,2.80
2023-03-28T13:02:45.640Z,6.05
2023-03-28T13:06:07.062Z,4.57
2023-03-28T13:09:16.444Z,6.55
2023-03-28T13:12:23.035Z,2.40
2023-03-28T13:15:13.595Z,5.82
2023-03-28T13:18:22.049Z,3.28
2023-03-28T13:21:17.485Z,7.28
2023-03-28T13:24:28.805Z,2.75
2023-03-28T13:27:34.834Z,5.35
2023-03-28T13:30:35.261Z,3.60
2023-03-28T13:33:33.845Z,7.38
2023-03-28T13:36:26.659Z,3.63
2023-03-28T13:39:41.434Z,3.25
2023-03-28T13:42:33.657Z,5.18
2023-03-28T13:45:26.772Z,3.78
2023-03-28T13:48:15.397Z,5.25
2023-03-28T13:51:08.684Z,3.10
2023-03-28T13:53:57.162Z,2.45
2023-03-28T13:56:47.877Z,6.63
2023-03-28T13:59:40.334Z,4.72
2023-03-28T14:02:38.190Z,3.85
2023-03-28T14:05:29.909Z,4.05
2023-03-28T14:08:17.601Z,4.40
2023-03-28T14:11:07.342Z,2.45
2023-03-28T14:14:13.489Z,3.90
2023-03-28T14:17:04.101Z,4.38
2023-03-28T14:19:58.409Z,7.25
2023-03-28T14:22:59.610Z,3.95
2023-03-28T14:25:51.557Z,5.28
2023-03-28T14:28:58.810Z,3.05
2023-03-28T14:31:51.520Z,3.47
2023-03-28T14:37:30.112Z,4.20
2023-03-28T14:40:24.744Z,3.95
2023-03-28T14:43:15.091Z,2.38
2023-03-28T14:46:08.300Z,3.83
2023-03-28T14:49:03.698Z,4.43
2023-03-28T14:51:57.307Z,3.60
2023-03-28T14:54:48.423Z,3.03
2023-03-28T14:57:37.935Z,2.67
2023-03-28T15:00:35.725Z,3.15
2023-03-28T15:03:38.939Z,3.83
2023-03-28T15:06:29.692Z,3.88
2023-03-28T15:09:29.428Z,3.83
2023-03-28T15:12:21.666Z,3.13
2023-03-28T15:15:33.559Z,5.97
2023-03-28T15:18:28.585Z,8.55
2023-03-28T15:21:18.085Z,2.88
2023-03-28T15:24:08.108Z,2.67
2023-03-28T15:27:01.665Z,5.95
2023-03-28T15:29:49.165Z,4.35
2023-03-28T15:32:39.362Z,5.10
2023-03-28T15:35:39.553Z,3.67
2023-03-28T15:38:30.015Z,5.00
2023-03-28T15:41:48.353Z,8.65
2023-03-28T15:44:41.008Z,5.10
2023-03-28T15:50:36.694Z,6.00
2023-03-28T15:53:31.013Z,4.60
2023-03-28T15:56:30.422Z,4.90
2023-03-28T15:59:40.566Z,4.65
2023-03-28T16:02:27.807Z,5.10
2023-03-28T16:05:15.122Z,5.93
2023-03-28T16:08:02.736Z,8.50
2023-03-28T16:10:50.071Z,3.42
2023-03-28T16:13:43.385Z,4.80
2023-03-28T16:16:30.651Z,4.40
2023-03-28T16:19:21.460Z,4.95
2023-03-28T16:22:11.116Z,2.63
2023-03-28T16:24:58.308Z,5.05
2023-03-28T16:27:45.989Z,2.47
2023-03-28T16:30:41.663Z,3.13
2023-03-28T16:33:30.276Z,5.30
2023-03-28T16:36:20.870Z,5.32
2023-03-28T16:39:08.560Z,5.20
2023-03-28T16:41:56.311Z,4.63
2023-03-28T16:44:43.577Z,4.15
2023-03-28T16:47:31.001Z,10.23
2023-03-28T16:50:18.935Z,7.03
2023-03-28T16:53:06.722Z,5.30
2023-03-28T16:55:54.099Z,3.60
2023-03-28T16:58:51.188Z,4.82
2023-03-28T17:01:39.191Z,3.97
2023-03-28T17:04:28.688Z,5.05
2023-03-28T17:07:18.012Z,7.13
2023-03-28T17:10:17.571Z,5.32
2023-03-28T17:13:17.675Z,3.70
2023-03-28T17:16:10.200Z,4.78
2023-03-28T17:18:57.930Z,8.82
2023-03-28T17:21:45.705Z,4.85
2023-03-28T17:24:35.099Z,8.15
2023-03-28T17:27:24.985Z,8.75
2023-03-28T17:30:13.074Z,6.15
2023-03-28T17:33:02.178Z,6.43
2023-03-28T17:35:49.527Z,7.45
2023-03-28T17:38:54.394Z,5.65
2023-03-28T17:41:41.824Z,4.75
2023-03-28T17:44:29.012Z,6.57
2023-03-28T17:47:16.379Z,6.10
2023-03-28T17:50:04.013Z,8.20
2023-03-28T17:52:52.156Z,7.93
2023-03-28T17:55:39.549Z,10.23
2023-03-28T17:58:30.151Z,9.98
2023-03-28T18:01:20.603Z,10.27
2023-03-28T18:04:08.684Z,14.75
2023-03-28T18:06:56.491Z,9.98
2023-03-28T18:09:44.029Z,9.85
2023-03-28T18:12:33.615Z,8.30
2023-03-28T18:18:37.932Z,5.85
2023-03-28T18:21:25.346Z,6.22
2023-03-28T18:24:12.640Z,5.60
2023-03-28T18:27:03.619Z,7.78
2023-03-28T18:29:51.230Z,6.25
2023-03-28T18:32:38.424Z,5.75
2023-03-28T18:35:27.131Z,9.82
2023-03-28T18:38:17.286Z,8.63
2023-03-28T18:41:06.216Z,6.38
2023-03-28T18:43:53.680Z,5.07
2023-03-28T18:46:43.573Z,8.15
2023-03-28T18:49:31.573Z,4.97
2023-03-28T18:52:19.600Z,8.68
2023-03-28T18:55:07.924Z,10.43
2023-03-28T18:57:58.940Z,6.18
2023-03-28T19:00:59.503Z,5.32
2023-03-28T19:03:48.356Z,7.70
2023-03-28T19:06:39.141Z,7.53
2023-03-28T19:09:28.073Z,6.40
2023-03-28T19:12:15.752Z,6.68
2023-03-28T19:15:06.003Z,6.93
2023-03-28T19:17:54.208Z,3.60
2023-03-28T19:20:49.727Z,5.10
2023-03-28T19:23:37.659Z,6.03
2023-03-28T19:26:28.760Z,6.53
2023-03-28T19:29:16.966Z,4.75
2023-03-28T19:32:07.715Z,6.00
2023-03-28T19:34:58.134Z,5.55
2023-03-28T19:37:46.973Z,4.60
2023-03-28T19:40:34.699Z,4.50
2023-03-28T19:43:24.534Z,10.55
2023-03-28T19:46:18.048Z,7.38
2023-03-28T19:49:08.192Z,3.78
2023-03-28T19:51:57.116Z,4.88
2023-03-28T19:54:47.135Z,5.43
2023-03-28T19:57:41.877Z,6.15
2023-03-28T20:00:29.144Z,4.32
2023-03-28T20:03:17.858Z,5.03
2023-03-28T20:06:08.767Z,4.65
2023-03-28T20:08:56.738Z,4.50
2023-03-28T20:11:44.054Z,2.45
2023-03-28T20:14:31.874Z,5.38
2023-03-28T20:17:21.257Z,4.72
2023-03-28T20:20:11.390Z,5.03
2023-03-28T20:23:00.578Z,3.78
2023-03-28T20:25:47.900Z,3.65
2023-03-28T20:28:35.247Z,5.38
2023-03-28T20:31:23.376Z,4.68
2023-03-28T20:34:12.243Z,6.78
2023-03-28T20:37:00.131Z,5.40
2023-03-28T20:39:49.361Z,3.40
2023-03-28T20:42:40.864Z,11.18
2023-03-28T20:45:28.825Z,6.90
2023-03-28T20:48:19.288Z,1.65
2023-03-28T20:51:17.078Z,5.60
2023-03-28T20:54:04.935Z,5.80
2023-03-28T20:56:52.151Z,4.18
2023-03-28T20:59:41.761Z,4.28
2023-03-28T21:02:33.443Z,15.38
2023-03-28T21:05:25.616Z,5.05
2023-03-28T21:08:15.537Z,5.93
2023-03-28T21:11:03.894Z,3.53
2023-03-28T21:13:51.384Z,8.45
2023-03-28T21:16:40.977Z,3.72
2023-03-28T21:19:28.382Z,6.07
2023-03-28T21:22:18.125Z,8.77
2023-03-28T21:25:07.014Z,5.20
2023-03-28T21:27:54.355Z,4.50
2023-03-28T21:30:41.736Z,2.55
2023-03-28T21:33:30.782Z,4.90
2023-03-28T21:36:19.935Z,3.42
2023-03-28T21:39:09.673Z,5.20
2023-03-28T21:41:57.835Z,4.53
2023-03-28T21:44:45.042Z,4.30
2023-03-28T21:47:32.366Z,3.28
2023-03-28T21:50:19.887Z,5.20
2023-03-28T21:53:09.257Z,6.70
2023-03-28T21:55:59.614Z,3.95
2023-03-28T21:58:46.881Z,4.43
2023-03-28T22:01:34.971Z,5.72
2023-03-28T22:04:22.265Z,6.47
2023-03-28T22:07:09.980Z,5.43
2023-03-28T22:10:01.357Z,4.57
2023-03-28T22:12:52.926Z,4.80
2023-03-28T22:15:42.661Z,6.63
2023-03-28T22:18:30.859Z,3.88
2023-03-28T22:21:21.179Z,7.13
2023-03-28T22:24:13.580Z,6.38
2023-03-28T22:27:06.019Z,4.05
2023-03-28T22:29:54.156Z,6.45
2023-03-28T22:32:43.478Z,7.60
2023-03-28T22:35:32.328Z,6.13
2023-03-28T22:38:19.864Z,5.40
2023-03-28T22:41:07.766Z,5.85
2023-03-28T22:43:55.147Z,6.63
2023-03-28T22:46:42.633Z,6.40
2023-03-28T22:49:30.799Z,8.68
2023-03-28T22:52:19.498Z,6.13
2023-03-28T22:55:17.941Z,4.57
2023-03-28T22:58:06.581Z,5.35
2023-03-28T23:00:56.082Z,5.45
2023-03-28T23:03:43.912Z,6.78
2023-03-28T23:06:31.706Z,5.20
2023-03-28T23:09:26.527Z,5.55
2023-03-28T23:12:15.726Z,6.05
2023-03-28T23:15:05.437Z,6.40
2023-03-28T23:17:52.787Z,4.75
2023-03-28T23:20:41.406Z,5.78
2023-03-28T23:23:28.632Z,6.80
2023-03-28T23:26:18.905Z,5.88
2023-03-28T23:29:12.884Z,4.68
2023-03-28T23:32:00.356Z,5.40
2023-03-28T23:34:47.608Z,4.18
2023-03-28T23:37:38.575Z,8.43
2023-03-28T23:40:28.335Z,9.90
2023-03-28T23:43:15.905Z,9.13
2023-03-28T23:46:04.417Z,7.65
2023-03-28T23:48:53.743Z,9.73
2023-03-28T23:51:48.754Z,6.43
2023-03-28T23:54:36.151Z,5.88
2023-03-28T23:57:25.328Z,12.00
